Minto Bridge, Canada
Current Conditions -  °F | °C
As of 12:00 AM on Monday 24 Nov 2014 (Local Time) from CYMA Reporting Station
Overcast Overcast  
Wind Chill: -4°   Ceiling: 2500
Heat Index:   Visibility: 20mi
Dew Point:   Wind: 8mph
Humidity: 67%   Direction: 20°NNE
Pressure: 29.81"   Gusts: NA
Location:  63.7°N, 135.85°W
Report Text: CYMA 240800Z 02007KT 20SM OVC025 M13/M18 A2981 RMK SC8 SLP148
Loading
Personal Weather Stations






























Interactive Weather Map New forecast layout! Learn more

10-Day Weather Forecast

Advertisements
Track Severe Weather on mobile